sensor_id;sensor_type;location;lat;lon;timestamp;P1;durP1;ratioP1;P2;durP2;ratioP2
13733;SDS011;43298;52.560;13.508;2022-10-16T00:01:18;8.30;;;7.90;;
13733;SDS011;43298;52.560;13.508;2022-10-16T00:03:47;8.55;;;8.18;;
13733;SDS011;43298;52.560;13.508;2022-10-16T00:06:14;8.20;;;7.80;;
13733;SDS011;43298;52.560;13.508;2022-10-16T00:08:43;8.00;;;7.50;;
13733;SDS011;43298;52.560;13.508;2022-10-16T00:11:14;7.47;;;7.18;;
13733;SDS011;43298;52.560;13.508;2022-10-16T00:13:46;9.05;;;8.25;;
13733;SDS011;43298;52.560;13.508;2022-10-16T00:16:15;7.75;;;7.35;;
13733;SDS011;43298;52.560;13.508;2022-10-16T00:18:41;8.43;;;8.02;;
13733;SDS011;43298;52.560;13.508;2022-10-16T00:21:12;7.20;;;6.90;;
13733;SDS011;43298;52.560;13.508;2022-10-16T00:23:41;7.03;;;6.72;;
13733;SDS011;43298;52.560;13.508;2022-10-16T00:26:09;7.82;;;7.32;;
13733;SDS011;43298;52.560;13.508;2022-10-16T00:28:38;7.40;;;7.10;;
13733;SDS011;43298;52.560;13.508;2022-10-16T00:31:06;7.40;;;7.10;;
13733;SDS011;43298;52.560;13.508;2022-10-16T00:33:37;8.15;;;7.68;;
13733;SDS011;43298;52.560;13.508;2022-10-16T00:36:05;7.35;;;7.05;;
13733;SDS011;43298;52.560;13.508;2022-10-16T00:38:34;7.05;;;6.68;;
13733;SDS011;43298;52.560;13.508;2022-10-16T00:41:00;8.15;;;7.85;;
13733;SDS011;43298;52.560;13.508;2022-10-16T00:48:59;7.47;;;7.18;;
13733;SDS011;43298;52.560;13.508;2022-10-16T00:51:42;7.75;;;7.45;;
13733;SDS011;43298;52.560;13.508;2022-10-16T00:54:16;7.90;;;7.60;;
13733;SDS011;43298;52.560;13.508;2022-10-16T00:56:47;7.97;;;7.57;;
13733;SDS011;43298;52.560;13.508;2022-10-16T00:59:36;7.05;;;6.75;;
13733;SDS011;43298;52.560;13.508;2022-10-16T01:02:06;7.65;;;7.35;;
13733;SDS011;43298;52.560;13.508;2022-10-16T01:05:07;7.13;;;6.82;;
13733;SDS011;43298;52.560;13.508;2022-10-16T01:07:34;7.68;;;7.38;;
13733;SDS011;43298;52.560;13.508;2022-10-16T01:13:00;7.93;;;7.63;;
13733;SDS011;43298;52.560;13.508;2022-10-16T01:16:06;7.55;;;7.22;;
13733;SDS011;43298;52.560;13.508;2022-10-16T01:21:39;7.10;;;6.80;;
13733;SDS011;43298;52.560;13.508;2022-10-16T01:24:17;7.28;;;6.97;;
13733;SDS011;43298;52.560;13.508;2022-10-16T01:32:59;7.20;;;6.90;;
13733;SDS011;43298;52.560;13.508;2022-10-16T01:35:37;7.50;;;7.20;;
13733;SDS011;43298;52.560;13.508;2022-10-16T01:38:15;7.78;;;7.47;;
13733;SDS011;43298;52.560;13.508;2022-10-16T01:40:52;8.15;;;7.85;;
13733;SDS011;43298;52.560;13.508;2022-10-16T01:43:26;7.60;;;7.20;;
13733;SDS011;43298;52.560;13.508;2022-10-16T01:45:58;7.97;;;7.65;;
13733;SDS011;43298;52.560;13.508;2022-10-16T01:48:25;7.93;;;7.63;;
13733;SDS011;43298;52.560;13.508;2022-10-16T01:50:57;7.07;;;6.78;;
13733;SDS011;43298;52.560;13.508;2022-10-16T01:53:35;8.00;;;7.70;;
13733;SDS011;43298;52.560;13.508;2022-10-16T01:56:01;8.77;;;8.38;;
13733;SDS011;43298;52.560;13.508;2022-10-16T01:58:33;7.18;;;6.88;;
13733;SDS011;43298;52.560;13.508;2022-10-16T02:01:05;6.95;;;6.65;;
13733;SDS011;43298;52.560;13.508;2022-10-16T02:03:35;8.27;;;7.97;;
13733;SDS011;43298;52.560;13.508;2022-10-16T02:06:04;6.80;;;6.50;;
13733;SDS011;43298;52.560;13.508;2022-10-16T02:08:29;8.27;;;7.88;;
13733;SDS011;43298;52.560;13.508;2022-10-16T02:10:56;6.75;;;6.45;;
13733;SDS011;43298;52.560;13.508;2022-10-16T02:13:35;7.82;;;7.53;;
13733;SDS011;43298;52.560;13.508;2022-10-16T02:16:10;7.25;;;6.95;;
13733;SDS011;43298;52.560;13.508;2022-10-16T02:18:38;7.85;;;7.55;;
13733;SDS011;43298;52.560;13.508;2022-10-16T02:21:07;7.88;;;7.57;;
13733;SDS011;43298;52.560;13.508;2022-10-16T02:23:47;7.93;;;7.55;;
13733;SDS011;43298;52.560;13.508;2022-10-16T02:26:42;8.52;;;8.13;;
13733;SDS011;43298;52.560;13.508;2022-10-16T02:29:20;7.90;;;7.60;;
13733;SDS011;43298;52.560;13.508;2022-10-16T02:31:50;8.95;;;8.52;;
13733;SDS011;43298;52.560;13.508;2022-10-16T02:34:24;9.00;;;8.60;;
13733;SDS011;43298;52.560;13.508;2022-10-16T02:36:51;7.78;;;7.47;;
13733;SDS011;43298;52.560;13.508;2022-10-16T02:39:20;8.65;;;8.27;;
13733;SDS011;43298;52.560;13.508;2022-10-16T02:41:46;8.85;;;8.45;;
13733;SDS011;43298;52.560;13.508;2022-10-16T02:44:12;8.18;;;7.88;;
13733;SDS011;43298;52.560;13.508;2022-10-16T02:46:38;8.77;;;8.40;;
13733;SDS011;43298;52.560;13.508;2022-10-16T02:49:04;7.70;;;7.38;;
13733;SDS011;43298;52.560;13.508;2022-10-16T02:51:30;9.10;;;8.70;;
13733;SDS011;43298;52.560;13.508;2022-10-16T02:53:55;8.68;;;8.27;;
13733;SDS011;43298;52.560;13.508;2022-10-16T02:56:21;8.07;;;7.78;;
13733;SDS011;43298;52.560;13.508;2022-10-16T02:58:47;8.32;;;7.95;;
13733;SDS011;43298;52.560;13.508;2022-10-16T03:01:13;8.23;;;7.85;;
13733;SDS011;43298;52.560;13.508;2022-10-16T03:03:41;7.80;;;7.50;;
13733;SDS011;43298;52.560;13.508;2022-10-16T03:06:07;7.82;;;7.53;;
13733;SDS011;43298;52.560;13.508;2022-10-16T03:08:33;7.75;;;7.45;;
13733;SDS011;43298;52.560;13.508;2022-10-16T03:10:59;7.68;;;7.32;;
13733;SDS011;43298;52.560;13.508;2022-10-16T03:13:24;7.35;;;7.05;;
13733;SDS011;43298;52.560;13.508;2022-10-16T03:15:50;7.15;;;6.85;;
13733;SDS011;43298;52.560;13.508;2022-10-16T03:18:16;7.18;;;6.88;;
13733;SDS011;43298;52.560;13.508;2022-10-16T03:20:42;7.40;;;7.10;;
13733;SDS011;43298;52.560;13.508;2022-10-16T03:23:08;7.65;;;7.35;;
13733;SDS011;43298;52.560;13.508;2022-10-16T03:25:34;7.45;;;7.15;;
13733;SDS011;43298;52.560;13.508;2022-10-16T03:28:00;6.15;;;5.85;;
13733;SDS011;43298;52.560;13.508;2022-10-16T03:30:26;5.97;;;5.78;;
13733;SDS011;43298;52.560;13.508;2022-10-16T03:32:52;7.00;;;6.70;;
13733;SDS011;43298;52.560;13.508;2022-10-16T03:35:19;6.15;;;5.85;;
13733;SDS011;43298;52.560;13.508;2022-10-16T03:37:49;6.35;;;6.10;;
13733;SDS011;43298;52.560;13.508;2022-10-16T03:40:16;5.75;;;5.55;;
13733;SDS011;43298;52.560;13.508;2022-10-16T03:42:42;6.28;;;6.00;;
13733;SDS011;43298;52.560;13.508;2022-10-16T03:45:08;5.80;;;5.57;;
13733;SDS011;43298;52.560;13.508;2022-10-16T03:47:34;6.90;;;6.60;;
13733;SDS011;43298;52.560;13.508;2022-10-16T03:50:01;30.30;;;7.65;;
13733;SDS011;43298;52.560;13.508;2022-10-16T03:52:27;7.68;;;7.38;;
13733;SDS011;43298;52.560;13.508;2022-10-16T03:54:53;8.65;;;6.88;;
13733;SDS011;43298;52.560;13.508;2022-10-16T03:57:18;7.55;;;7.25;;
13733;SDS011;43298;52.560;13.508;2022-10-16T03:59:45;7.53;;;7.22;;
13733;SDS011;43298;52.560;13.508;2022-10-16T04:02:11;7.25;;;6.90;;
13733;SDS011;43298;52.560;13.508;2022-10-16T04:04:37;6.95;;;6.65;;
13733;SDS011;43298;52.560;13.508;2022-10-16T04:07:03;7.88;;;7.57;;
13733;SDS011;43298;52.560;13.508;2022-10-16T04:09:29;7.65;;;7.35;;
13733;SDS011;43298;52.560;13.508;2022-10-16T04:11:55;7.82;;;7.43;;
13733;SDS011;43298;52.560;13.508;2022-10-16T04:14:21;7.45;;;7.15;;
13733;SDS011;43298;52.560;13.508;2022-10-16T04:16:46;6.97;;;6.68;;
13733;SDS011;43298;52.560;13.508;2022-10-16T04:19:12;7.72;;;7.43;;
13733;SDS011;43298;52.560;13.508;2022-10-16T04:21:38;7.35;;;6.95;;
13733;SDS011;43298;52.560;13.508;2022-10-16T04:24:04;6.88;;;6.57;;
13733;SDS011;43298;52.560;13.508;2022-10-16T04:26:30;6.97;;;6.68;;
13733;SDS011;43298;52.560;13.508;2022-10-16T04:28:55;7.03;;;6.63;;
13733;SDS011;43298;52.560;13.508;2022-10-16T04:31:21;7.03;;;6.72;;
13733;SDS011;43298;52.560;13.508;2022-10-16T04:33:47;6.65;;;6.35;;
13733;SDS011;43298;52.560;13.508;2022-10-16T04:36:13;6.47;;;6.18;;
13733;SDS011;43298;52.560;13.508;2022-10-16T04:38:39;7.15;;;6.85;;
13733;SDS011;43298;52.560;13.508;2022-10-16T04:41:05;6.50;;;6.22;;
13733;SDS011;43298;52.560;13.508;2022-10-16T04:43:32;6.57;;;6.28;;
13733;SDS011;43298;52.560;13.508;2022-10-16T04:45:58;6.30;;;6.05;;
13733;SDS011;43298;52.560;13.508;2022-10-16T04:48:24;7.40;;;7.00;;
13733;SDS011;43298;52.560;13.508;2022-10-16T04:50:50;6.97;;;6.68;;
13733;SDS011;43298;52.560;13.508;2022-10-16T04:53:16;6.97;;;6.68;;
13733;SDS011;43298;52.560;13.508;2022-10-16T04:55:42;6.40;;;6.10;;
13733;SDS011;43298;52.560;13.508;2022-10-16T04:58:08;7.35;;;7.05;;
13733;SDS011;43298;52.560;13.508;2022-10-16T05:00:34;6.95;;;6.65;;
13733;SDS011;43298;52.560;13.508;2022-10-16T05:03:00;7.30;;;7.00;;
13733;SDS011;43298;52.560;13.508;2022-10-16T05:05:30;7.05;;;6.75;;
13733;SDS011;43298;52.560;13.508;2022-10-16T05:07:56;6.50;;;6.20;;
13733;SDS011;43298;52.560;13.508;2022-10-16T05:10:22;7.25;;;6.95;;
13733;SDS011;43298;52.560;13.508;2022-10-16T05:12:48;7.57;;;7.28;;
13733;SDS011;43298;52.560;13.508;2022-10-16T05:15:13;6.65;;;6.35;;
13733;SDS011;43298;52.560;13.508;2022-10-16T05:17:39;7.32;;;7.03;;
13733;SDS011;43298;52.560;13.508;2022-10-16T05:20:05;7.75;;;7.35;;
13733;SDS011;43298;52.560;13.508;2022-10-16T05:22:31;7.82;;;7.50;;
13733;SDS011;43298;52.560;13.508;2022-10-16T05:24:57;8.38;;;7.97;;
13733;SDS011;43298;52.560;13.508;2022-10-16T05:27:23;7.05;;;6.75;;
13733;SDS011;43298;52.560;13.508;2022-10-16T05:29:49;7.75;;;6.85;;
13733;SDS011;43298;52.560;13.508;2022-10-16T05:32:15;6.32;;;6.03;;
13733;SDS011;43298;52.560;13.508;2022-10-16T05:34:42;6.22;;;5.93;;
13733;SDS011;43298;52.560;13.508;2022-10-16T05:37:09;6.43;;;6.13;;
13733;SDS011;43298;52.560;13.508;2022-10-16T05:39:36;7.32;;;7.03;;
13733;SDS011;43298;52.560;13.508;2022-10-16T05:42:03;6.68;;;6.38;;
13733;SDS011;43298;52.560;13.508;2022-10-16T05:44:30;7.20;;;6.90;;
13733;SDS011;43298;52.560;13.508;2022-10-16T05:46:56;6.57;;;6.28;;
13733;SDS011;43298;52.560;13.508;2022-10-16T05:49:21;7.10;;;6.80;;
13733;SDS011;43298;52.560;13.508;2022-10-16T05:51:47;6.88;;;6.47;;
13733;SDS011;43298;52.560;13.508;2022-10-16T05:54:13;7.63;;;7.32;;
13733;SDS011;43298;52.560;13.508;2022-10-16T05:56:39;6.47;;;6.18;;
13733;SDS011;43298;52.560;13.508;2022-10-16T05:59:05;7.00;;;6.70;;
13733;SDS011;43298;52.560;13.508;2022-10-16T06:01:31;6.53;;;6.22;;
13733;SDS011;43298;52.560;13.508;2022-10-16T06:03:57;8.05;;;7.75;;
13733;SDS011;43298;52.560;13.508;2022-10-16T06:06:24;8.48;;;8.07;;
13733;SDS011;43298;52.560;13.508;2022-10-16T06:08:52;8.20;;;7.90;;
13733;SDS011;43298;52.560;13.508;2022-10-16T06:11:20;8.65;;;8.25;;
13733;SDS011;43298;52.560;13.508;2022-10-16T06:13:49;6.78;;;6.47;;
13733;SDS011;43298;52.560;13.508;2022-10-16T06:16:17;7.93;;;7.63;;
13733;SDS011;43298;52.560;13.508;2022-10-16T06:18:43;7.57;;;7.28;;
13733;SDS011;43298;52.560;13.508;2022-10-16T06:21:10;8.05;;;7.75;;
13733;SDS011;43298;52.560;13.508;2022-10-16T06:23:42;6.75;;;6.45;;
13733;SDS011;43298;52.560;13.508;2022-10-16T06:26:12;6.68;;;6.38;;
13733;SDS011;43298;52.560;13.508;2022-10-16T06:28:41;7.43;;;7.13;;
13733;SDS011;43298;52.560;13.508;2022-10-16T06:31:08;6.47;;;6.18;;
13733;SDS011;43298;52.560;13.508;2022-10-16T06:33:35;6.85;;;6.22;;
13733;SDS011;43298;52.560;13.508;2022-10-16T06:36:03;7.10;;;6.80;;
13733;SDS011;43298;52.560;13.508;2022-10-16T06:38:34;7.07;;;6.78;;
13733;SDS011;43298;52.560;13.508;2022-10-16T06:41:01;6.88;;;6.57;;
13733;SDS011;43298;52.560;13.508;2022-10-16T06:43:31;6.50;;;6.22;;
13733;SDS011;43298;52.560;13.508;2022-10-16T06:45:57;6.95;;;6.65;;
13733;SDS011;43298;52.560;13.508;2022-10-16T06:48:25;7.10;;;6.80;;
13733;SDS011;43298;52.560;13.508;2022-10-16T06:51:33;6.35;;;6.05;;
13733;SDS011;43298;52.560;13.508;2022-10-16T06:53:46;8.15;;;7.75;;
13733;SDS011;43298;52.560;13.508;2022-10-16T06:56:15;6.85;;;6.55;;
13733;SDS011;43298;52.560;13.508;2022-10-16T06:58:44;7.22;;;6.93;;
13733;SDS011;43298;52.560;13.508;2022-10-16T07:01:11;7.38;;;7.07;;
13733;SDS011;43298;52.560;13.508;2022-10-16T07:03:39;8.48;;;8.07;;
13733;SDS011;43298;52.560;13.508;2022-10-16T07:06:07;8.45;;;8.05;;
13733;SDS011;43298;52.560;13.508;2022-10-16T07:08:36;7.65;;;7.35;;
13733;SDS011;43298;52.560;13.508;2022-10-16T07:11:05;8.43;;;8.02;;
13733;SDS011;43298;52.560;13.508;2022-10-16T07:13:34;7.55;;;7.25;;
13733;SDS011;43298;52.560;13.508;2022-10-16T07:16:08;7.40;;;7.10;;
13733;SDS011;43298;52.560;13.508;2022-10-16T07:18:37;8.40;;;8.00;;
13733;SDS011;43298;52.560;13.508;2022-10-16T07:21:08;8.82;;;8.43;;
13733;SDS011;43298;52.560;13.508;2022-10-16T07:23:37;8.98;;;8.57;;
13733;SDS011;43298;52.560;13.508;2022-10-16T07:26:03;8.18;;;7.88;;
13733;SDS011;43298;52.560;13.508;2022-10-16T07:28:30;7.63;;;7.32;;
13733;SDS011;43298;52.560;13.508;2022-10-16T07:31:01;8.68;;;7.90;;
13733;SDS011;43298;52.560;13.508;2022-10-16T07:33:31;8.70;;;8.30;;
13733;SDS011;43298;52.560;13.508;2022-10-16T07:35:58;6.63;;;6.32;;
13733;SDS011;43298;52.560;13.508;2022-10-16T07:38:24;6.47;;;6.18;;
13733;SDS011;43298;52.560;13.508;2022-10-16T07:41:05;7.38;;;7.07;;
13733;SDS011;43298;52.560;13.508;2022-10-16T07:43:33;7.88;;;7.57;;
13733;SDS011;43298;52.560;13.508;2022-10-16T07:46:00;8.75;;;8.35;;
13733;SDS011;43298;52.560;13.508;2022-10-16T07:48:27;7.60;;;7.30;;
13733;SDS011;43298;52.560;13.508;2022-10-16T07:50:58;8.15;;;7.85;;
13733;SDS011;43298;52.560;13.508;2022-10-16T07:53:26;7.97;;;7.57;;
13733;SDS011;43298;52.560;13.508;2022-10-16T07:55:54;7.22;;;6.93;;
13733;SDS011;43298;52.560;13.508;2022-10-16T07:58:25;7.07;;;6.78;;
13733;SDS011;43298;52.560;13.508;2022-10-16T08:00:51;7.03;;;6.28;;
13733;SDS011;43298;52.560;13.508;2022-10-16T08:03:17;6.90;;;6.60;;
13733;SDS011;43298;52.560;13.508;2022-10-16T08:05:43;7.25;;;6.95;;
13733;SDS011;43298;52.560;13.508;2022-10-16T08:08:11;6.68;;;6.38;;
13733;SDS011;43298;52.560;13.508;2022-10-16T08:10:39;7.35;;;7.05;;
13733;SDS011;43298;52.560;13.508;2022-10-16T08:13:05;7.65;;;7.35;;
13733;SDS011;43298;52.560;13.508;2022-10-16T08:15:30;7.50;;;7.20;;
13733;SDS011;43298;52.560;13.508;2022-10-16T08:17:57;7.30;;;6.95;;
13733;SDS011;43298;52.560;13.508;2022-10-16T08:20:25;7.38;;;7.07;;
13733;SDS011;43298;52.560;13.508;2022-10-16T08:22:52;7.07;;;6.78;;
13733;SDS011;43298;52.560;13.508;2022-10-16T08:25:19;7.35;;;7.05;;
13733;SDS011;43298;52.560;13.508;2022-10-16T08:27:46;6.47;;;6.18;;
13733;SDS011;43298;52.560;13.508;2022-10-16T08:30:12;6.45;;;6.15;;
13733;SDS011;43298;52.560;13.508;2022-10-16T08:32:38;7.80;;;7.50;;
13733;SDS011;43298;52.560;13.508;2022-10-16T08:35:06;7.80;;;7.50;;
13733;SDS011;43298;52.560;13.508;2022-10-16T08:37:32;7.97;;;7.68;;
13733;SDS011;43298;52.560;13.508;2022-10-16T08:39:58;7.30;;;7.00;;
13733;SDS011;43298;52.560;13.508;2022-10-16T08:42:43;8.70;;;8.30;;
13733;SDS011;43298;52.560;13.508;2022-10-16T08:48:48;8.38;;;8.07;;
13733;SDS011;43298;52.560;13.508;2022-10-16T08:51:24;9.52;;;9.13;;
13733;SDS011;43298;52.560;13.508;2022-10-16T08:53:58;12.82;;;10.00;;
13733;SDS011;43298;52.560;13.508;2022-10-16T08:57:09;9.23;;;8.82;;
13733;SDS011;43298;52.560;13.508;2022-10-16T08:59:47;9.48;;;9.07;;
13733;SDS011;43298;52.560;13.508;2022-10-16T09:05:00;9.18;;;8.77;;
13733;SDS011;43298;52.560;13.508;2022-10-16T09:11:10;9.48;;;9.07;;
13733;SDS011;43298;52.560;13.508;2022-10-16T09:14:07;11.75;;;11.05;;
13733;SDS011;43298;52.560;13.508;2022-10-16T09:17:18;12.20;;;11.63;;
13733;SDS011;43298;52.560;13.508;2022-10-16T09:22:32;8.48;;;8.07;;
13733;SDS011;43298;52.560;13.508;2022-10-16T09:25:00;8.48;;;8.18;;
13733;SDS011;43298;52.560;13.508;2022-10-16T09:27:38;8.38;;;8.07;;
13733;SDS011;43298;52.560;13.508;2022-10-16T09:30:11;11.40;;;10.90;;
13733;SDS011;43298;52.560;13.508;2022-10-16T09:32:45;10.10;;;9.60;;
13733;SDS011;43298;52.560;13.508;2022-10-16T09:35:17;9.40;;;9.00;;
13733;SDS011;43298;52.560;13.508;2022-10-16T09:37:47;9.32;;;8.82;;
13733;SDS011;43298;52.560;13.508;2022-10-16T09:43:00;8.60;;;8.20;;
13733;SDS011;43298;52.560;13.508;2022-10-16T09:48:36;8.25;;;7.95;;
13733;SDS011;43298;52.560;13.508;2022-10-16T09:51:19;8.15;;;7.78;;
13733;SDS011;43298;52.560;13.508;2022-10-16T09:56:36;9.38;;;8.98;;
13733;SDS011;43298;52.560;13.508;2022-10-16T09:59:11;10.48;;;10.07;;
13733;SDS011;43298;52.560;13.508;2022-10-16T10:01:49;14.15;;;13.55;;
13733;SDS011;43298;52.560;13.508;2022-10-16T10:04:17;14.73;;;14.13;;
13733;SDS011;43298;52.560;13.508;2022-10-16T10:06:48;21.38;;;20.20;;
13733;SDS011;43298;52.560;13.508;2022-10-16T10:12:02;24.60;;;23.60;;
13733;SDS011;43298;52.560;13.508;2022-10-16T10:14:32;14.55;;;13.95;;
13733;SDS011;43298;52.560;13.508;2022-10-16T10:17:12;8.57;;;8.23;;
13733;SDS011;43298;52.560;13.508;2022-10-16T10:19:46;7.55;;;7.25;;
13733;SDS011;43298;52.560;13.508;2022-10-16T10:22:24;8.68;;;8.27;;
13733;SDS011;43298;52.560;13.508;2022-10-16T10:33:28;8.77;;;8.38;;
13733;SDS011;43298;52.560;13.508;2022-10-16T10:53:24;10.40;;;10.00;;
13733;SDS011;43298;52.560;13.508;2022-10-16T11:01:50;13.10;;;12.60;;
13733;SDS011;43298;52.560;13.508;2022-10-16T11:07:34;10.27;;;9.88;;
13733;SDS011;43298;52.560;13.508;2022-10-16T11:10:19;10.63;;;10.23;;
13733;SDS011;43298;52.560;13.508;2022-10-16T11:12:50;11.18;;;10.68;;
13733;SDS011;43298;52.560;13.508;2022-10-16T11:15:29;10.63;;;10.18;;
13733;SDS011;43298;52.560;13.508;2022-10-16T11:18:05;9.13;;;8.73;;
13733;SDS011;43298;52.560;13.508;2022-10-16T11:20:52;11.25;;;10.55;;
13733;SDS011;43298;52.560;13.508;2022-10-16T11:23:40;9.23;;;8.82;;
13733;SDS011;43298;52.560;13.508;2022-10-16T11:26:16;11.60;;;11.10;;
13733;SDS011;43298;52.560;13.508;2022-10-16T11:28:50;11.45;;;10.95;;
13733;SDS011;43298;52.560;13.508;2022-10-16T11:34:04;15.40;;;14.80;;
13733;SDS011;43298;52.560;13.508;2022-10-16T11:37:05;16.02;;;15.35;;
13733;SDS011;43298;52.560;13.508;2022-10-16T11:39:44;13.05;;;12.55;;
13733;SDS011;43298;52.560;13.508;2022-10-16T11:42:13;14.48;;;13.88;;
13733;SDS011;43298;52.560;13.508;2022-10-16T11:44:55;12.38;;;11.88;;
13733;SDS011;43298;52.560;13.508;2022-10-16T11:47:40;15.50;;;14.90;;
13733;SDS011;43298;52.560;13.508;2022-10-16T11:50:13;13.63;;;13.05;;
13733;SDS011;43298;52.560;13.508;2022-10-16T11:55:42;15.05;;;14.45;;
13733;SDS011;43298;52.560;13.508;2022-10-16T12:01:22;15.73;;;15.02;;
13733;SDS011;43298;52.560;13.508;2022-10-16T12:04:36;14.95;;;14.35;;
13733;SDS011;43298;52.560;13.508;2022-10-16T12:07:14;14.63;;;14.02;;
13733;SDS011;43298;52.560;13.508;2022-10-16T12:09:50;13.90;;;13.30;;
13733;SDS011;43298;52.560;13.508;2022-10-16T12:15:15;19.30;;;18.50;;
13733;SDS011;43298;52.560;13.508;2022-10-16T12:17:49;16.85;;;16.15;;
13733;SDS011;43298;52.560;13.508;2022-10-16T12:22:47;17.77;;;17.08;;
13733;SDS011;43298;52.560;13.508;2022-10-16T12:25:33;16.58;;;15.88;;
13733;SDS011;43298;52.560;13.508;2022-10-16T12:28:33;14.85;;;14.25;;
13733;SDS011;43298;52.560;13.508;2022-10-16T12:30:55;13.80;;;13.20;;
13733;SDS011;43298;52.560;13.508;2022-10-16T12:33:32;12.57;;;12.07;;
13733;SDS011;43298;52.560;13.508;2022-10-16T12:36:01;12.80;;;12.30;;
13733;SDS011;43298;52.560;13.508;2022-10-16T12:38:45;11.80;;;11.30;;
13733;SDS011;43298;52.560;13.508;2022-10-16T12:41:27;11.50;;;11.00;;
13733;SDS011;43298;52.560;13.508;2022-10-16T12:43:54;13.90;;;13.30;;
13733;SDS011;43298;52.560;13.508;2022-10-16T12:46:21;10.68;;;10.27;;
13733;SDS011;43298;52.560;13.508;2022-10-16T12:49:05;11.25;;;10.77;;
13733;SDS011;43298;52.560;13.508;2022-10-16T12:54:12;12.85;;;12.32;;
13733;SDS011;43298;52.560;13.508;2022-10-16T13:03:00;14.07;;;13.48;;
13733;SDS011;43298;52.560;13.508;2022-10-16T13:09:05;12.40;;;11.90;;
13733;SDS011;43298;52.560;13.508;2022-10-16T13:12:11;12.15;;;11.65;;
13733;SDS011;43298;52.560;13.508;2022-10-16T13:18:49;13.93;;;13.32;;
13733;SDS011;43298;52.560;13.508;2022-10-16T13:21:14;14.77;;;14.18;;
13733;SDS011;43298;52.560;13.508;2022-10-16T13:27:08;13.95;;;13.35;;
13733;SDS011;43298;52.560;13.508;2022-10-16T13:29:48;13.80;;;13.23;;
13733;SDS011;43298;52.560;13.508;2022-10-16T13:32:25;19.20;;;18.38;;
13733;SDS011;43298;52.560;13.508;2022-10-16T13:34:52;20.48;;;19.65;;
13733;SDS011;43298;52.560;13.508;2022-10-16T13:37:20;19.95;;;19.15;;
13733;SDS011;43298;52.560;13.508;2022-10-16T13:39:48;21.20;;;20.30;;
13733;SDS011;43298;52.560;13.508;2022-10-16T13:44:52;20.27;;;19.40;;
13733;SDS011;43298;52.560;13.508;2022-10-16T13:47:27;20.85;;;19.95;;
13733;SDS011;43298;52.560;13.508;2022-10-16T13:50:05;18.15;;;17.42;;
13733;SDS011;43298;52.560;13.508;2022-10-16T13:52:39;17.33;;;16.42;;
13733;SDS011;43298;52.560;13.508;2022-10-16T13:55:13;18.05;;;17.30;;
13733;SDS011;43298;52.560;13.508;2022-10-16T13:57:42;17.50;;;16.80;;
13733;SDS011;43298;52.560;13.508;2022-10-16T14:00:21;17.58;;;16.85;;
13733;SDS011;43298;52.560;13.508;2022-10-16T14:03:04;18.17;;;17.42;;
13733;SDS011;43298;52.560;13.508;2022-10-16T14:05:44;18.55;;;17.77;;
13733;SDS011;43298;52.560;13.508;2022-10-16T14:08:22;19.52;;;18.73;;
13733;SDS011;43298;52.560;13.508;2022-10-16T14:10:50;17.90;;;17.17;;
13733;SDS011;43298;52.560;13.508;2022-10-16T14:13:22;18.77;;;17.80;;
13733;SDS011;43298;52.560;13.508;2022-10-16T14:16:20;20.20;;;19.40;;
13733;SDS011;43298;52.560;13.508;2022-10-16T14:19:01;18.40;;;17.65;;
13733;SDS011;43298;52.560;13.508;2022-10-16T14:21:35;19.05;;;18.15;;
13733;SDS011;43298;52.560;13.508;2022-10-16T14:24:12;18.00;;;17.20;;
13733;SDS011;43298;52.560;13.508;2022-10-16T14:26:47;18.35;;;17.58;;
13733;SDS011;43298;52.560;13.508;2022-10-16T14:29:14;19.83;;;19.02;;
13733;SDS011;43298;52.560;13.508;2022-10-16T14:31:54;19.80;;;19.00;;
13733;SDS011;43298;52.560;13.508;2022-10-16T14:34:25;17.90;;;17.13;;
13733;SDS011;43298;52.560;13.508;2022-10-16T14:37:09;15.95;;;15.25;;
13733;SDS011;43298;52.560;13.508;2022-10-16T14:39:51;13.77;;;13.18;;
13733;SDS011;43298;52.560;13.508;2022-10-16T14:42:18;14.30;;;13.70;;
13733;SDS011;43298;52.560;13.508;2022-10-16T14:44:51;13.63;;;13.05;;
13733;SDS011;43298;52.560;13.508;2022-10-16T14:47:19;13.85;;;13.25;;
13733;SDS011;43298;52.560;13.508;2022-10-16T14:49:51;13.35;;;12.77;;
13733;SDS011;43298;52.560;13.508;2022-10-16T14:52:20;12.77;;;12.27;;
13733;SDS011;43298;52.560;13.508;2022-10-16T14:54:49;12.90;;;12.40;;
13733;SDS011;43298;52.560;13.508;2022-10-16T14:57:19;12.43;;;11.93;;
13733;SDS011;43298;52.560;13.508;2022-10-16T14:59:49;11.82;;;11.32;;
13733;SDS011;43298;52.560;13.508;2022-10-16T15:05:02;11.80;;;11.30;;
13733;SDS011;43298;52.560;13.508;2022-10-16T15:07:43;10.18;;;9.75;;
13733;SDS011;43298;52.560;13.508;2022-10-16T15:10:10;10.52;;;10.13;;
13733;SDS011;43298;52.560;13.508;2022-10-16T15:12:38;11.85;;;11.35;;
13733;SDS011;43298;52.560;13.508;2022-10-16T15:15:38;10.15;;;9.75;;
13733;SDS011;43298;52.560;13.508;2022-10-16T15:17:58;10.90;;;10.43;;
13733;SDS011;43298;52.560;13.508;2022-10-16T15:20:26;10.07;;;9.68;;
13733;SDS011;43298;52.560;13.508;2022-10-16T15:22:55;10.93;;;10.48;;
13733;SDS011;43298;52.560;13.508;2022-10-16T15:27:52;11.88;;;11.38;;
13733;SDS011;43298;52.560;13.508;2022-10-16T15:30:18;10.88;;;10.48;;
13733;SDS011;43298;52.560;13.508;2022-10-16T15:32:44;12.25;;;11.75;;
13733;SDS011;43298;52.560;13.508;2022-10-16T15:35:10;11.77;;;11.27;;
13733;SDS011;43298;52.560;13.508;2022-10-16T15:37:35;10.90;;;10.50;;
13733;SDS011;43298;52.560;13.508;2022-10-16T15:40:01;12.10;;;11.60;;
13733;SDS011;43298;52.560;13.508;2022-10-16T15:42:27;13.13;;;12.63;;
13733;SDS011;43298;52.560;13.508;2022-10-16T15:44:53;12.93;;;12.40;;
13733;SDS011;43298;52.560;13.508;2022-10-16T15:47:19;12.35;;;11.85;;
13733;SDS011;43298;52.560;13.508;2022-10-16T15:49:44;12.18;;;11.68;;
13733;SDS011;43298;52.560;13.508;2022-10-16T15:52:10;11.57;;;11.07;;
13733;SDS011;43298;52.560;13.508;2022-10-16T15:54:36;12.68;;;12.18;;
13733;SDS011;43298;52.560;13.508;2022-10-16T15:57:02;12.50;;;12.00;;
13733;SDS011;43298;52.560;13.508;2022-10-16T15:59:28;11.55;;;11.05;;
13733;SDS011;43298;52.560;13.508;2022-10-16T16:01:55;11.80;;;11.30;;
13733;SDS011;43298;52.560;13.508;2022-10-16T16:04:20;11.38;;;10.88;;
13733;SDS011;43298;52.560;13.508;2022-10-16T16:06:46;12.10;;;11.60;;
13733;SDS011;43298;52.560;13.508;2022-10-16T16:09:12;11.98;;;11.45;;
13733;SDS011;43298;52.560;13.508;2022-10-16T16:11:39;11.88;;;11.38;;
13733;SDS011;43298;52.560;13.508;2022-10-16T16:14:06;9.80;;;9.40;;
13733;SDS011;43298;52.560;13.508;2022-10-16T16:16:32;12.02;;;11.52;;
13733;SDS011;43298;52.560;13.508;2022-10-16T16:19:02;10.88;;;10.48;;
13733;SDS011;43298;52.560;13.508;2022-10-16T16:21:32;10.55;;;10.05;;
13733;SDS011;43298;52.560;13.508;2022-10-16T16:23:58;10.93;;;10.43;;
13733;SDS011;43298;52.560;13.508;2022-10-16T16:26:25;10.25;;;9.85;;
13733;SDS011;43298;52.560;13.508;2022-10-16T16:28:58;9.30;;;8.90;;
13733;SDS011;43298;52.560;13.508;2022-10-16T16:31:25;9.65;;;9.25;;
13733;SDS011;43298;52.560;13.508;2022-10-16T16:33:53;9.98;;;9.57;;
13733;SDS011;43298;52.560;13.508;2022-10-16T16:36:19;10.25;;;9.85;;
13733;SDS011;43298;52.560;13.508;2022-10-16T16:38:45;10.38;;;9.95;;
13733;SDS011;43298;52.560;13.508;2022-10-16T16:41:16;9.25;;;8.85;;
13733;SDS011;43298;52.560;13.508;2022-10-16T16:43:45;10.00;;;9.60;;
13733;SDS011;43298;52.560;13.508;2022-10-16T16:46:12;10.98;;;10.43;;